Time;durP1;ratioP1;P1;durP2;ratioP2;P2;SDS_P1;SDS_P2;PMS_P1;PMS_P2;Temp;Humidity;BMP_temperature;BMP_pressure;BME280_temperature;BME280_humidity;BME280_pressure;Samples;Min_cycle;Max_cycle;Signal;HPM_P1;HPM_P2
2021/12/16 00:09:01;;;;;;;31.27;21.58;;;8.10;99.90;;;;;;4954407;28;90650;-42
2021/12/16 00:20:21;;;;;;;25.00;21.00;;;8.20;99.90;;;;;;4997744;28;89852;-42
2021/12/16 00:33:37;;;;;;;29.40;23.52;;;8.20;99.90;;;;;;4997508;28;89366;-38
2021/12/16 00:36:05;;;;;;;27.90;19.83;;;8.20;99.90;;;;;;4998129;28;90363;-35
2021/12/16 00:38:31;;;;;;;25.50;22.42;;;8.20;99.90;;;;;;5000795;28;88534;-43
2021/12/16 00:40:59;;;;;;;27.65;20.35;;;8.20;99.90;;;;;;5000173;28;89647;-38
2021/12/16 00:43:36;;;;;;;26.67;22.23;;;8.20;99.90;;;;;;5001286;28;89690;-32
2021/12/16 00:54:10;;;;;;;28.80;21.88;;;8.20;99.90;;;;;;5000778;28;89404;-40
2021/12/16 00:56:37;;;;;;;27.80;22.60;;;8.20;99.90;;;;;;5000434;28;91981;-37
2021/12/16 00:59:06;;;;;;;29.75;20.35;;;8.20;99.90;;;;;;4999416;28;90474;-38
2021/12/16 01:34:06;;;;;;;28.48;21.77;;;8.20;99.90;;;;;;4999680;28;89430;-39
2021/12/16 01:42:23;;;;;;;37.08;22.85;;;8.10;99.90;;;;;;4999641;28;89650;-40
2021/12/16 01:48:08;;;;;;;39.03;24.73;;;8.10;99.90;;;;;;4955590;28;89032;-37
2021/12/16 01:50:41;;;;;;;28.88;21.60;;;8.10;99.90;;;;;;4995919;28;88906;-39
2021/12/16 01:56:00;;;;;;;36.15;25.50;;;8.10;99.90;;;;;;4999768;28;91900;-34
2021/12/16 01:58:29;;;;;;;28.85;23.08;;;8.10;99.90;;;;;;4999737;28;89383;-38
2021/12/16 02:01:27;;;;;;;25.65;21.42;;;8.00;99.90;;;;;;4999034;28;90286;-40
2021/12/16 02:04:01;;;;;;;40.28;26.00;;;8.00;99.90;;;;;;4998453;28;90027;-37
2021/12/16 02:09:07;;;;;;;32.50;25.83;;;8.00;99.90;;;;;;5014409;28;88632;-35
2021/12/16 02:11:53;;;;;;;36.05;23.23;;;8.00;99.90;;;;;;4999431;28;90358;-41
2021/12/16 02:33:35;;;;;;;33.25;23.83;;;8.00;99.90;;;;;;4999247;28;90293;-40
2021/12/16 02:36:14;;;;;;;40.10;25.35;;;8.00;99.90;;;;;;4998892;28;88859;-36
2021/12/16 02:38:43;;;;;;;37.95;25.30;;;8.10;99.90;;;;;;4998081;28;90486;-37
2021/12/16 02:41:10;;;;;;;37.75;25.42;;;8.00;99.90;;;;;;4998884;28;88481;-41
2021/12/16 02:48:43;;;;;;;36.63;24.60;;;8.10;99.90;;;;;;4998832;28;89069;-37
2021/12/16 02:51:18;;;;;;;36.42;25.90;;;8.10;99.90;;;;;;4998726;28;88732;-40
2021/12/16 02:53:51;;;;;;;36.10;24.30;;;8.10;99.90;;;;;;4998004;28;90873;-46
2021/12/16 02:56:17;;;;;;;32.05;23.48;;;8.10;99.90;;;;;;4998808;28;90362;-40
2021/12/16 02:58:47;;;;;;;35.13;25.17;;;8.10;99.90;;;;;;4998030;28;89807;-37
2021/12/16 03:01:20;;;;;;;38.45;26.10;;;8.10;99.90;;;;;;4998339;28;89016;-37
2021/12/16 03:03:46;;;;;;;35.35;25.15;;;8.10;99.90;;;;;;4998296;28;90402;-37
2021/12/16 03:06:12;;;;;;;38.30;25.45;;;8.10;99.90;;;;;;4998317;28;89033;-44
2021/12/16 03:08:40;;;;;;;39.95;26.15;;;8.20;99.90;;;;;;4998402;28;89871;-36
2021/12/16 03:13:56;;;;;;;40.33;25.20;;;8.20;99.90;;;;;;4997992;28;90180;-37
2021/12/16 03:16:57;;;;;;;36.28;26.73;;;8.20;99.90;;;;;;4998144;28;89622;-35
2021/12/16 03:19:17;;;;;;;36.00;25.27;;;8.20;99.90;;;;;;4998030;28;89927;-39
2021/12/16 03:21:54;;;;;;;37.55;25.35;;;8.20;99.90;;;;;;4997722;28;88745;-36
2021/12/16 03:37:53;;;;;;;42.42;26.30;;;8.20;99.90;;;;;;4997619;28;92184;-40
2021/12/16 03:40:19;;;;;;;36.85;26.85;;;8.20;99.90;;;;;;4998015;28;90794;-41
2021/12/16 03:42:50;;;;;;;37.47;26.42;;;8.20;99.90;;;;;;4996614;28;88827;-34
2021/12/16 03:48:37;;;;;;;39.80;27.08;;;8.20;99.90;;;;;;4998547;28;89039;-44
2021/12/16 03:51:16;;;;;;;41.53;27.67;;;8.20;99.90;;;;;;4996070;28;89841;-39
2021/12/16 03:53:44;;;;;;;35.33;27.35;;;8.20;99.90;;;;;;4993811;28;88163;-41
2021/12/16 03:56:10;;;;;;;41.53;26.05;;;8.20;99.90;;;;;;4998218;28;90340;-37
2021/12/16 03:58:37;;;;;;;38.53;26.48;;;8.10;99.90;;;;;;4997058;28;90415;-40
2021/12/16 04:01:07;;;;;;;36.65;25.88;;;8.10;99.90;;;;;;4997809;28;89504;-41
2021/12/16 04:03:33;;;;;;;39.13;25.90;;;8.10;99.90;;;;;;4997109;28;89920;-44
2021/12/16 04:06:00;;;;;;;37.92;27.05;;;8.20;99.90;;;;;;4997701;28;89987;-41
2021/12/16 04:08:25;;;;;;;42.70;25.75;;;8.10;99.90;;;;;;4997665;28;89573;-37
2021/12/16 04:11:02;;;;;;;36.97;26.98;;;8.10;99.90;;;;;;4980016;28;89905;-44
2021/12/16 04:13:28;;;;;;;33.97;25.33;;;8.10;99.90;;;;;;5001337;28;87674;-39
2021/12/16 04:15:54;;;;;;;33.13;25.40;;;8.10;99.90;;;;;;5001095;28;90597;-39
2021/12/16 04:18:20;;;;;;;37.53;27.10;;;8.00;99.90;;;;;;5000931;28;89816;-41
2021/12/16 04:20:47;;;;;;;42.00;27.52;;;8.00;99.90;;;;;;5000910;28;90680;-36
2021/12/16 04:23:14;;;;;;;38.55;27.35;;;8.00;99.90;;;;;;5001072;28;89150;-34
2021/12/16 04:25:43;;;;;;;34.95;25.88;;;7.90;99.90;;;;;;5000985;28;88162;-45
2021/12/16 04:28:18;;;;;;;39.10;26.10;;;7.90;99.90;;;;;;5000672;28;90972;-45
2021/12/16 04:30:44;;;;;;;39.85;25.90;;;7.90;99.90;;;;;;5000427;28;89430;-35
2021/12/16 04:33:10;;;;;;;37.67;27.27;;;7.90;99.90;;;;;;5000699;28;89487;-43
2021/12/16 04:35:37;;;;;;;32.65;25.52;;;7.90;99.90;;;;;;5001379;28;90270;-42
2021/12/16 04:38:05;;;;;;;32.30;27.05;;;7.90;99.90;;;;;;5000676;28;89673;-42
2021/12/16 04:40:31;;;;;;;37.22;27.05;;;7.90;99.90;;;;;;5000553;28;89680;-36
2021/12/16 04:43:02;;;;;;;40.80;26.38;;;7.90;99.90;;;;;;5000812;28;88256;-38
2021/12/16 04:45:29;;;;;;;38.92;29.23;;;7.90;99.90;;;;;;5000842;28;89790;-44
2021/12/16 04:47:55;;;;;;;38.38;27.70;;;7.90;99.90;;;;;;5000423;28;89675;-38
2021/12/16 04:50:21;;;;;;;42.85;29.60;;;7.90;99.90;;;;;;5000401;28;89528;-42
2021/12/16 04:52:46;;;;;;;35.75;26.50;;;7.90;99.90;;;;;;5000237;28;89790;-45
2021/12/16 04:55:14;;;;;;;40.75;27.42;;;7.90;99.90;;;;;;5000261;28;90735;-39
2021/12/16 04:57:41;;;;;;;35.50;26.75;;;7.90;99.90;;;;;;4999646;28;89845;-46
2021/12/16 05:00:12;;;;;;;35.72;26.98;;;7.80;99.90;;;;;;5001135;28;89185;-42
2021/12/16 05:02:38;;;;;;;39.85;27.05;;;7.90;99.90;;;;;;5000209;28;89128;-37
2021/12/16 05:05:04;;;;;;;46.67;28.90;;;7.90;99.90;;;;;;5000893;28;90244;-42
2021/12/16 05:07:30;;;;;;;43.28;27.90;;;7.90;99.90;;;;;;5000797;28;89193;-35
2021/12/16 05:12:24;;;;;;;38.50;28.77;;;7.80;99.90;;;;;;5001093;28;89042;-34
2021/12/16 05:14:51;;;;;;;37.22;28.60;;;7.80;99.90;;;;;;4999949;28;90001;-42
2021/12/16 05:17:31;;;;;;;39.95;29.05;;;7.80;99.90;;;;;;4999460;28;90772;-37
2021/12/16 05:20:00;;;;;;;31.95;26.63;;;7.80;99.90;;;;;;4999542;28;90780;-38
2021/12/16 05:25:20;;;;;;;43.47;30.17;;;7.80;99.90;;;;;;4999796;28;90095;-37
2021/12/16 05:27:46;;;;;;;32.53;26.48;;;7.80;99.90;;;;;;5000232;28;90878;-39
2021/12/16 05:30:12;;;;;;;35.90;28.15;;;7.80;99.90;;;;;;5000332;28;89173;-37
2021/12/16 05:32:40;;;;;;;31.13;27.08;;;7.80;99.90;;;;;;5000791;28;88923;-35
2021/12/16 05:35:06;;;;;;;50.95;30.10;;;7.80;99.90;;;;;;4982348;28;90668;-41
2021/12/16 05:37:32;;;;;;;40.67;27.77;;;7.80;99.90;;;;;;4999797;28;90348;-41
2021/12/16 05:39:57;;;;;;;34.10;26.75;;;7.80;99.90;;;;;;5000086;28;89623;-35
2021/12/16 05:42:23;;;;;;;34.22;27.85;;;7.80;99.90;;;;;;4999949;28;89227;-40
2021/12/16 05:44:49;;;;;;;36.00;25.05;;;7.80;99.90;;;;;;4999783;28;90237;-39
2021/12/16 05:47:14;;;;;;;37.90;25.20;;;7.80;99.90;;;;;;4981695;28;90686;-37
2021/12/16 05:49:40;;;;;;;37.15;25.92;;;7.80;99.90;;;;;;4999432;28;88765;-41
2021/12/16 05:52:06;;;;;;;38.83;27.15;;;7.80;99.90;;;;;;4982551;28;87616;-35
2021/12/16 05:54:31;;;;;;;35.63;25.98;;;7.80;99.90;;;;;;4999887;28;90175;-36
2021/12/16 05:56:57;;;;;;;40.60;27.67;;;7.80;99.90;;;;;;4999378;28;89593;-39
2021/12/16 05:59:22;;;;;;;31.70;26.05;;;7.80;99.90;;;;;;4998905;28;90038;-34
2021/12/16 06:01:49;;;;;;;33.45;25.83;;;7.80;99.90;;;;;;5000567;28;89694;-39
2021/12/16 06:04:15;;;;;;;30.52;25.73;;;7.80;99.90;;;;;;4999442;28;89784;-34
2021/12/16 06:06:41;;;;;;;37.60;27.15;;;7.80;99.90;;;;;;4998775;28;90547;-40
2021/12/16 06:09:08;;;;;;;32.90;27.20;;;7.90;99.90;;;;;;4999663;28;89815;-38
2021/12/16 06:11:35;;;;;;;36.88;26.90;;;7.90;99.90;;;;;;4999168;28;89337;-36
2021/12/16 06:14:18;;;;;;;35.17;27.50;;;7.80;99.90;;;;;;4998789;28;90565;-34
2021/12/16 06:23:07;;;;;;;46.47;27.88;;;7.90;99.90;;;;;;4999159;28;89540;-38
2021/12/16 06:28:08;;;;;;;33.78;27.35;;;7.90;99.90;;;;;;4999526;28;89964;-35
2021/12/16 06:30:38;;;;;;;37.25;29.45;;;7.90;99.90;;;;;;4999092;28;90614;-39
2021/12/16 06:33:06;;;;;;;36.83;29.23;;;7.90;99.90;;;;;;4998653;28;89781;-38
2021/12/16 06:35:32;;;;;;;37.77;25.10;;;7.90;99.90;;;;;;4997598;28;90172;-42
2021/12/16 06:37:57;;;;;;;32.97;28.02;;;7.90;99.90;;;;;;4998533;28;89912;-36
2021/12/16 06:40:23;;;;;;;39.75;28.80;;;7.90;99.90;;;;;;4998678;28;89834;-39
2021/12/16 06:42:50;;;;;;;42.92;27.05;;;7.90;99.90;;;;;;4999011;28;88514;-36
2021/12/16 06:45:22;;;;;;;38.70;27.30;;;7.90;99.90;;;;;;4999061;28;90275;-36
2021/12/16 06:48:02;;;;;;;37.20;28.08;;;7.90;99.90;;;;;;4997935;28;89789;-44
2021/12/16 06:50:46;;;;;;;36.95;29.20;;;7.90;99.90;;;;;;4998528;28;91305;-41
2021/12/16 06:53:18;;;;;;;38.05;27.98;;;7.90;99.90;;;;;;4999219;28;88604;-40
2021/12/16 06:56:10;;;;;;;33.88;28.40;;;7.90;99.90;;;;;;4998274;28;90245;-43
2021/12/16 07:01:18;;;;;;;33.42;26.50;;;7.90;99.90;;;;;;4998194;28;90584;-42
2021/12/16 07:03:47;;;;;;;37.55;27.15;;;7.90;99.90;;;;;;4997962;28;89500;-40
2021/12/16 07:06:22;;;;;;;35.05;27.92;;;7.90;99.90;;;;;;4998729;28;90742;-35
2021/12/16 07:08:52;;;;;;;32.25;26.70;;;7.90;99.90;;;;;;4998855;28;91033;-40
2021/12/16 07:11:18;;;;;;;37.92;27.17;;;7.80;99.90;;;;;;4998401;28;89651;-42
2021/12/16 07:13:55;;;;;;;36.33;24.85;;;7.80;99.90;;;;;;4998117;28;88737;-40
2021/12/16 07:16:21;;;;;;;30.95;24.40;;;7.80;99.90;;;;;;4998848;28;90222;-36
2021/12/16 07:18:46;;;;;;;38.33;24.33;;;7.70;99.90;;;;;;4999131;28;90591;-40
2021/12/16 07:21:12;;;;;;;46.38;26.33;;;7.70;99.90;;;;;;4998412;28;89564;-42
2021/12/16 07:23:38;;;;;;;34.72;27.33;;;7.60;99.90;;;;;;4997564;28;90168;-42
2021/12/16 07:26:03;;;;;;;42.85;27.17;;;7.60;99.90;;;;;;4998212;28;90771;-39
2021/12/16 07:28:29;;;;;;;34.00;25.92;;;7.60;99.90;;;;;;4996487;28;89930;-35
2021/12/16 07:30:55;;;;;;;32.90;26.83;;;7.50;99.90;;;;;;4998723;28;89323;-38
2021/12/16 07:33:21;;;;;;;42.05;26.52;;;7.50;99.90;;;;;;4997894;28;89780;-38
2021/12/16 07:35:47;;;;;;;35.83;25.35;;;7.40;99.90;;;;;;4997764;28;89223;-44
2021/12/16 07:38:13;;;;;;;38.53;26.38;;;7.40;99.90;;;;;;4979930;28;90907;-41
2021/12/16 07:40:40;;;;;;;34.15;25.08;;;7.40;99.90;;;;;;4997462;28;89520;-37
2021/12/16 07:45:37;;;;;;;35.55;26.08;;;7.30;99.90;;;;;;4995688;28;92808;-37
2021/12/16 07:48:04;;;;;;;39.92;26.45;;;7.20;99.90;;;;;;4997425;28;90646;-33
2021/12/16 07:50:31;;;;;;;35.95;25.42;;;7.20;99.90;;;;;;4997463;28;90566;-41
2021/12/16 07:52:56;;;;;;;41.67;27.13;;;7.20;99.90;;;;;;4997969;28;89999;-36
2021/12/16 07:55:22;;;;;;;40.47;26.70;;;7.10;99.90;;;;;;4998685;28;90167;-35
2021/12/16 07:57:49;;;;;;;35.47;27.45;;;7.10;99.90;;;;;;4997255;28;90125;-39
2021/12/16 08:00:21;;;;;;;42.92;27.42;;;7.10;99.90;;;;;;4998121;28;89453;-36
2021/12/16 08:02:46;;;;;;;41.72;28.48;;;7.10;99.90;;;;;;4997400;28;89183;-37
2021/12/16 08:05:13;;;;;;;42.72;27.40;;;7.10;99.90;;;;;;4998091;28;90141;-40
2021/12/16 08:07:40;;;;;;;43.88;26.88;;;7.10;99.90;;;;;;4997698;28;89436;-42
2021/12/16 08:10:09;;;;;;;43.75;27.00;;;7.10;99.90;;;;;;4996621;28;89593;-43
2021/12/16 08:12:35;;;;;;;37.53;26.30;;;7.10;99.90;;;;;;4978732;28;89222;-36
2021/12/16 08:15:01;;;;;;;48.92;29.42;;;7.10;99.90;;;;;;4997239;28;90219;-40
2021/12/16 08:17:27;;;;;;;39.22;28.42;;;7.00;99.90;;;;;;4997324;28;89715;-35
2021/12/16 08:19:52;;;;;;;50.58;28.45;;;7.10;99.90;;;;;;4980081;28;89756;-36
2021/12/16 08:22:18;;;;;;;35.15;27.55;;;7.00;99.90;;;;;;4997080;28;88177;-36
2021/12/16 08:24:44;;;;;;;39.72;29.60;;;7.10;99.90;;;;;;4996533;28;90100;-39
2021/12/16 08:27:11;;;;;;;39.45;25.98;;;7.10;99.90;;;;;;4980572;28;89777;-36
2021/12/16 08:29:37;;;;;;;46.70;28.73;;;7.10;99.90;;;;;;4996938;28;91018;-37
2021/12/16 08:32:04;;;;;;;35.13;28.00;;;7.10;99.90;;;;;;4997800;28;88260;-42
2021/12/16 08:34:32;;;;;;;44.15;29.38;;;7.20;99.90;;;;;;4997565;28;90007;-37
2021/12/16 08:36:58;;;;;;;44.25;27.65;;;7.20;99.90;;;;;;4996103;28;90969;-36
2021/12/16 08:39:25;;;;;;;39.05;26.80;;;7.20;99.90;;;;;;4996777;28;90219;-40
2021/12/16 08:41:54;;;;;;;45.88;30.83;;;7.30;99.90;;;;;;4997687;28;90155;-34
2021/12/16 08:44:20;;;;;;;42.83;27.83;;;7.30;99.90;;;;;;4997140;28;90172;-36
2021/12/16 08:46:49;;;;;;;40.97;30.27;;;7.40;99.90;;;;;;4978073;28;89844;-37
2021/12/16 08:49:16;;;;;;;48.20;29.35;;;7.40;99.90;;;;;;4995689;28;88867;-39
2021/12/16 08:51:48;;;;;;;44.45;28.52;;;7.40;99.90;;;;;;4995623;28;90274;-39
2021/12/16 08:54:15;;;;;;;38.90;32.25;;;7.50;99.90;;;;;;4996577;28;90808;-38
2021/12/16 08:56:43;;;;;;;35.80;27.73;;;7.50;99.90;;;;;;4996747;28;88642;-42
2021/12/16 08:59:09;;;;;;;50.17;32.08;;;7.50;99.90;;;;;;5000387;28;89830;-38
2021/12/16 09:01:40;;;;;;;54.40;31.55;;;7.50;99.90;;;;;;4999900;28;89768;-37
2021/12/16 09:04:06;;;;;;;45.63;31.42;;;7.50;99.90;;;;;;5000729;28;90727;-36
2021/12/16 09:06:32;;;;;;;51.92;31.95;;;7.60;99.90;;;;;;5000140;28;89819;-42
2021/12/16 09:08:59;;;;;;;41.00;32.40;;;7.60;99.90;;;;;;5000928;28;89083;-36
2021/12/16 09:11:28;;;;;;;49.63;31.58;;;7.60;99.90;;;;;;4981582;28;89909;-36
2021/12/16 09:13:57;;;;;;;49.38;31.85;;;7.70;99.90;;;;;;4998681;28;90369;-42
2021/12/16 09:16:26;;;;;;;47.05;32.70;;;7.70;99.90;;;;;;4996633;28;89295;-37
2021/12/16 09:18:55;;;;;;;47.38;31.55;;;7.80;99.90;;;;;;4998197;28;93258;-40
2021/12/16 09:21:24;;;;;;;46.28;32.50;;;7.80;99.90;;;;;;4998309;28;88151;-40
2021/12/16 09:23:51;;;;;;;55.65;32.75;;;7.90;99.90;;;;;;4997430;28;90153;-36
2021/12/16 09:26:17;;;;;;;54.58;32.20;;;7.90;99.90;;;;;;4978478;28;89686;-43
2021/12/16 09:28:44;;;;;;;58.85;33.22;;;7.90;99.90;;;;;;4997746;28;91127;-35
2021/12/16 09:31:12;;;;;;;47.75;31.95;;;8.00;99.90;;;;;;4998130;28;89954;-38
2021/12/16 09:33:45;;;;;;;41.50;31.70;;;8.00;99.90;;;;;;4997223;28;88860;-44
2021/12/16 09:36:16;;;;;;;46.63;31.63;;;8.10;99.90;;;;;;4997734;28;89686;-41
2021/12/16 09:38:42;;;;;;;49.65;32.70;;;8.10;99.90;;;;;;4998329;28;90043;-32
2021/12/16 09:41:08;;;;;;;49.53;30.75;;;8.10;99.90;;;;;;4997536;28;87685;-40
2021/12/16 09:43:44;;;;;;;50.92;31.50;;;8.10;99.90;;;;;;4997698;28;90508;-39
2021/12/16 09:46:13;;;;;;;47.28;31.42;;;8.10;99.90;;;;;;4998272;28;90140;-43
2021/12/16 09:48:40;;;;;;;42.13;31.58;;;8.10;99.90;;;;;;4996922;28;89984;-39
2021/12/16 09:51:09;;;;;;;47.55;31.13;;;8.10;99.90;;;;;;4996689;28;89345;-34
2021/12/16 09:53:37;;;;;;;46.03;29.15;;;8.20;99.90;;;;;;4996705;28;90025;-40
2021/12/16 09:56:04;;;;;;;43.47;29.67;;;8.20;99.90;;;;;;4997281;28;89560;-39
2021/12/16 09:58:34;;;;;;;47.75;31.33;;;8.20;99.90;;;;;;4997502;28;89886;-39
2021/12/16 10:01:01;;;;;;;46.22;30.73;;;8.30;99.90;;;;;;4996822;28;88921;-42
2021/12/16 10:03:27;;;;;;;44.10;31.20;;;8.30;99.90;;;;;;4978999;28;90825;-41
2021/12/16 10:05:53;;;;;;;48.55;31.70;;;8.30;99.90;;;;;;4996803;28;88509;-40
2021/12/16 10:08:20;;;;;;;46.55;29.55;;;8.30;99.90;;;;;;4996866;28;89414;-37
2021/12/16 10:10:46;;;;;;;41.03;29.38;;;8.30;99.90;;;;;;4996390;28;88579;-41
2021/12/16 10:13:19;;;;;;;57.92;31.73;;;8.30;99.90;;;;;;4996253;28;90535;-38
2021/12/16 10:18:21;;;;;;;50.70;29.48;;;8.30;99.90;;;;;;4996964;28;90283;-40
2021/12/16 10:20:59;;;;;;;37.65;28.50;;;8.30;99.90;;;;;;4997505;28;88474;-42
2021/12/16 10:23:40;;;;;;;55.63;28.83;;;8.30;99.90;;;;;;4996764;28;89947;-39
2021/12/16 10:26:15;;;;;;;44.50;27.42;;;8.40;99.90;;;;;;4978486;28;89413;-38
2021/12/16 10:28:44;;;;;;;41.05;26.63;;;8.40;99.90;;;;;;4995798;28;89607;-42
2021/12/16 10:31:12;;;;;;;;;;;8.40;99.90;;;;;;4997944;28;88712;-41
2021/12/16 10:33:51;;;;;;;41.13;26.55;;;8.40;99.90;;;;;;4997651;28;90061;-35
2021/12/16 10:36:24;;;;;;;47.92;27.73;;;8.40;99.90;;;;;;4996137;28;89654;-39
2021/12/16 10:39:04;;;;;;;47.90;26.98;;;8.40;99.90;;;;;;4995772;28;89942;-37
2021/12/16 10:41:36;;;;;;;39.05;25.38;;;8.40;99.90;;;;;;4996045;28;89935;-40
2021/12/16 10:44:12;;;;;;;45.95;29.15;;;8.40;99.90;;;;;;4996367;28;90390;-37
2021/12/16 10:46:54;;;;;;;43.60;27.92;;;8.40;99.90;;;;;;4979197;28;89710;-38
2021/12/16 10:49:25;;;;;;;63.55;26.13;;;8.40;99.90;;;;;;4996683;28;90420;-40
2021/12/16 10:52:27;;;;;;;42.35;27.30;;;8.40;99.90;;;;;;4995995;28;89423;-39
2021/12/16 10:54:54;;;;;;;40.45;26.23;;;8.40;99.90;;;;;;4980449;28;89460;-37
2021/12/16 10:57:27;;;;;;;42.80;28.80;;;8.40;99.90;;;;;;4995852;28;92892;-38
2021/12/16 10:59:59;;;;;;;45.95;26.55;;;8.40;99.90;;;;;;4995774;28;88544;-36
2021/12/16 11:02:34;;;;;;;39.72;25.95;;;8.50;99.90;;;;;;4996198;28;87636;-38
2021/12/16 11:05:11;;;;;;;40.85;27.23;;;8.50;99.90;;;;;;4995120;28;90073;-41
2021/12/16 11:07:43;;;;;;;46.40;28.95;;;8.50;99.90;;;;;;4995225;28;90659;-38
2021/12/16 11:10:13;;;;;;;47.25;28.45;;;8.50;99.90;;;;;;4995736;28;91666;-40
2021/12/16 11:12:43;;;;;;;38.42;27.73;;;8.50;99.90;;;;;;4996774;28;89254;-45
2021/12/16 11:15:13;;;;;;;41.65;26.23;;;8.60;99.90;;;;;;4978395;28;92529;-39
2021/12/16 11:17:54;;;;;;;41.00;25.50;;;8.60;99.90;;;;;;4996339;28;90056;-41
2021/12/16 11:20:48;;;;;;;39.65;24.35;;;8.70;99.90;;;;;;4977977;28;90186;-38
2021/12/16 11:23:15;;;;;;;47.15;27.20;;;8.70;99.90;;;;;;4984665;28;87845;-38
2021/12/16 11:25:52;;;;;;;38.90;25.10;;;8.70;99.90;;;;;;4994579;28;90379;-38
2021/12/16 11:28:22;;;;;;;37.97;23.33;;;8.70;99.90;;;;;;4995536;28;89663;-41
2021/12/16 11:31:02;;;;;;;45.28;25.27;;;8.70;99.90;;;;;;4994948;28;89378;-38
2021/12/16 11:33:32;;;;;;;49.25;29.40;;;8.70;99.90;;;;;;4994965;28;88793;-45
2021/12/16 11:36:09;;;;;;;45.75;30.70;;;8.70;99.90;;;;;;4995192;28;89798;-39
2021/12/16 11:38:51;;;;;;;41.10;26.95;;;8.80;99.90;;;;;;4995871;28;89112;-35
2021/12/16 11:41:16;;;;;;;43.85;26.55;;;8.80;99.90;;;;;;4995265;28;90554;-41
2021/12/16 11:43:57;;;;;;;50.33;27.40;;;8.80;99.90;;;;;;4995751;28;89742;-36
2021/12/16 11:46:55;;;;;;;47.58;26.27;;;8.80;99.90;;;;;;4996146;28;89856;-41
2021/12/16 11:49:32;;;;;;;;;;;8.80;99.90;;;;;;4962817;28;89715;-35
2021/12/16 11:52:03;;;;;;;39.40;25.17;;;8.80;99.90;;;;;;4997519;28;89143;-39
2021/12/16 11:54:40;;;;;;;42.45;25.70;;;8.80;99.90;;;;;;4996163;28;88855;-45
2021/12/16 11:57:18;;;;;;;45.80;26.50;;;8.80;99.90;;;;;;4995665;28;92244;-36
2021/12/16 11:59:55;;;;;;;40.85;24.70;;;8.90;99.90;;;;;;4995371;28;91909;-39
2021/12/16 12:02:35;;;;;;;46.33;27.10;;;8.90;99.90;;;;;;4995419;28;89799;-43
2021/12/16 12:05:23;;;;;;;43.95;25.48;;;8.90;99.90;;;;;;4994488;28;89129;-37
2021/12/16 12:07:57;;;;;;;;;;;8.90;99.90;;;;;;4978502;28;90765;-40
2021/12/16 12:10:46;;;;;;;36.58;25.52;;;8.90;99.90;;;;;;4997482;28;89967;-43
2021/12/16 12:13:15;;;;;;;43.72;26.83;;;8.90;99.90;;;;;;4995664;28;89466;-39
2021/12/16 12:15:59;;;;;;;45.75;25.73;;;9.00;99.90;;;;;;4994982;28;89492;-37
2021/12/16 12:18:52;;;;;;;43.85;28.10;;;9.00;99.90;;;;;;4995676;28;90253;-37
2021/12/16 12:21:29;;;;;;;42.92;26.20;;;9.00;99.90;;;;;;4995621;28;89589;-37
2021/12/16 12:23:57;;;;;;;41.35;24.20;;;9.10;99.90;;;;;;4994919;28;89559;-43
2021/12/16 12:26:25;;;;;;;41.53;23.65;;;9.10;99.90;;;;;;4994441;28;89878;-37
2021/12/16 12:28:57;;;;;;;32.13;24.95;;;9.10;99.90;;;;;;4975868;28;90409;-40
2021/12/16 12:31:27;;;;;;;35.28;22.33;;;9.10;99.90;;;;;;4994561;28;88685;-39
2021/12/16 12:33:53;;;;;;;32.35;21.98;;;9.10;99.90;;;;;;4997110;28;89828;-43
2021/12/16 12:36:20;;;;;;;35.78;23.98;;;9.10;99.90;;;;;;4979261;28;89228;-39
2021/12/16 12:38:46;;;;;;;34.75;23.02;;;9.10;99.90;;;;;;4997006;28;91054;-37
2021/12/16 12:41:12;;;;;;;49.15;24.35;;;9.10;99.90;;;;;;4997384;28;89328;-42
2021/12/16 12:43:38;;;;;;;47.80;24.75;;;9.10;99.90;;;;;;4996244;28;90180;-39
2021/12/16 12:46:06;;;;;;;41.97;25.75;;;9.10;99.90;;;;;;4997777;28;89283;-40
2021/12/16 12:48:37;;;;;;;42.17;26.20;;;9.10;99.90;;;;;;4980913;28;92257;-41
2021/12/16 12:51:05;;;;;;;50.42;29.48;;;9.10;99.90;;;;;;4996548;28;90312;-40
2021/12/16 12:53:34;;;;;;;51.17;29.33;;;9.20;99.90;;;;;;4998326;28;90473;-39
2021/12/16 12:56:15;;;;;;;49.13;26.35;;;9.10;99.90;;;;;;4998209;28;89467;-40
2021/12/16 12:59:11;;;;;;;44.45;27.65;;;9.20;99.90;;;;;;4981424;28;89930;-38
2021/12/16 13:01:55;;;;;;;40.10;26.05;;;9.10;99.90;;;;;;4996956;28;89522;-39
2021/12/16 13:04:32;;;;;;;39.33;23.35;;;9.20;99.90;;;;;;4997442;28;89447;-40
2021/12/16 13:07:02;;;;;;;36.55;22.27;;;9.20;99.90;;;;;;4997460;28;90114;-37
2021/12/16 13:09:33;;;;;;;47.65;23.33;;;9.20;99.90;;;;;;4983571;28;90258;-40
2021/12/16 13:12:02;;;;;;;33.70;23.10;;;9.20;99.90;;;;;;4991239;28;89546;-43
2021/12/16 13:14:47;;;;;;;31.42;21.20;;;9.10;99.90;;;;;;4984332;28;89455;-35
2021/12/16 13:29:08;;;;;;;29.10;20.95;;;9.20;99.90;;;;;;4996798;28;90759;-41
2021/12/16 13:31:35;;;;;;;31.15;21.52;;;9.20;99.90;;;;;;4983608;28;90107;-43
2021/12/16 13:34:02;;;;;;;32.83;20.15;;;9.20;99.90;;;;;;4990822;28;89084;-35
2021/12/16 13:36:44;;;;;;;29.83;21.13;;;9.20;99.90;;;;;;4992323;28;90811;-38
2021/12/16 13:39:23;;;;;;;40.67;21.70;;;9.20;99.90;;;;;;4984787;28;88385;-43
2021/12/16 13:42:05;;;;;;;43.33;22.40;;;9.20;99.90;;;;;;4974226;28;89972;-41
2021/12/16 13:44:54;;;;;;;46.50;23.85;;;9.30;99.90;;;;;;4989041;28;90344;-40
2021/12/16 13:47:37;;;;;;;33.88;22.90;;;9.30;99.90;;;;;;4980457;28;90855;-36
2021/12/16 14:07:28;;;;;;;28.77;18.23;;;9.20;99.90;;;;;;4990262;28;89708;-43
2021/12/16 14:10:10;;;;;;;32.40;21.13;;;9.20;99.90;;;;;;4979313;28;88572;-42
2021/12/16 14:13:44;;;;;;;31.92;18.77;;;9.20;99.90;;;;;;4991055;28;89140;-38
2021/12/16 14:16:15;;;;;;;35.92;18.55;;;9.20;99.90;;;;;;4991283;28;90689;-40
2021/12/16 14:31:42;;;;;;;25.10;16.88;;;9.20;99.90;;;;;;4990998;28;89814;-45
2021/12/16 14:48:08;;;;;;;25.52;18.55;;;9.20;99.90;;;;;;4990509;28;89078;-38
2021/12/16 14:50:36;;;;;;;29.33;19.75;;;9.20;99.90;;;;;;4991274;28;91264;-37
2021/12/16 14:53:17;;;;;;;28.25;20.13;;;9.20;99.90;;;;;;4990893;28;89687;-42
2021/12/16 14:55:44;;;;;;;29.10;16.88;;;9.20;99.90;;;;;;4989318;28;88541;-38
2021/12/16 14:58:09;;;;;;;31.00;18.70;;;9.20;99.90;;;;;;4988768;28;87748;-40
2021/12/16 15:00:49;;;;;;;32.90;19.02;;;9.20;99.90;;;;;;4990501;28;90606;-40
2021/12/16 15:03:28;;;;;;;28.85;18.52;;;9.20;99.90;;;;;;4997958;28;90357;-39
2021/12/16 15:05:58;;;;;;;28.35;19.88;;;9.20;99.90;;;;;;4975222;28;88231;-41
2021/12/16 15:08:35;;;;;;;30.98;21.20;;;9.20;99.90;;;;;;4989976;28;90238;-42
2021/12/16 15:11:03;;;;;;;29.40;18.80;;;9.20;99.90;;;;;;4990304;28;89366;-39
2021/12/16 15:16:50;;;;;;;28.23;19.67;;;9.20;99.90;;;;;;4967967;28;89646;-40
2021/12/16 15:36:44;;;;;;;34.78;22.52;;;9.20;99.90;;;;;;5009051;27;90632;-33
2021/12/16 15:39:50;;;;;;;34.80;22.00;;;9.20;99.90;;;;;;5010038;27;90813;-34
2021/12/16 15:45:18;;;;;;;39.50;23.52;;;9.10;99.90;;;;;;5009841;27;90246;-36
2021/12/16 15:47:59;;;;;;;36.63;21.88;;;9.20;99.90;;;;;;4991076;27;91358;-34
2021/12/16 15:50:34;;;;;;;37.40;23.10;;;9.20;99.90;;;;;;5010222;27;89773;-34
2021/12/16 15:53:06;;;;;;;32.85;23.42;;;9.20;99.90;;;;;;5009904;27;90556;-35
2021/12/16 15:55:37;;;;;;;46.22;25.25;;;9.10;99.90;;;;;;5009434;27;89013;-35
2021/12/16 15:58:08;;;;;;;41.30;21.52;;;9.20;99.90;;;;;;5009889;27;90948;-34
2021/12/16 16:00:38;;;;;;;38.13;23.30;;;9.20;99.90;;;;;;5009732;27;89974;-34
2021/12/16 16:03:05;;;;;;;34.75;22.83;;;9.20;99.90;;;;;;5009436;27;89696;-37
2021/12/16 16:05:33;;;;;;;34.53;23.55;;;9.20;99.90;;;;;;5008926;27;90440;-34
2021/12/16 16:08:01;;;;;;;39.25;24.35;;;9.20;99.90;;;;;;5008362;27;91492;-34
2021/12/16 16:10:27;;;;;;;33.45;22.17;;;9.20;99.90;;;;;;5009491;27;89754;-33
2021/12/16 16:12:53;;;;;;;38.15;23.63;;;9.20;99.90;;;;;;5010259;27;89855;-37
2021/12/16 16:15:22;;;;;;;37.17;23.15;;;9.20;99.90;;;;;;5009433;27;91024;-36
2021/12/16 16:20:36;;;;;;;36.10;23.52;;;9.10;99.90;;;;;;5010073;27;89550;-33
2021/12/16 16:23:11;;;;;;;28.10;19.23;;;9.10;99.90;;;;;;5009595;27;88805;-34
2021/12/16 16:25:38;;;;;;;32.35;19.60;;;9.10;99.90;;;;;;5008399;27;91230;-33
2021/12/16 16:28:05;;;;;;;25.08;18.13;;;9.10;99.90;;;;;;5009047;27;90888;-34
2021/12/16 16:30:32;;;;;;;22.65;17.48;;;9.00;99.90;;;;;;5008938;27;90507;-32
2021/12/16 16:33:06;;;;;;;27.13;18.45;;;9.00;99.90;;;;;;5009459;27;89329;-35
2021/12/16 16:35:35;;;;;;;26.42;17.30;;;8.90;99.90;;;;;;5009148;27;91689;-34
2021/12/16 16:38:09;;;;;;;23.23;16.10;;;8.90;99.90;;;;;;5008933;27;90035;-36
2021/12/16 16:40:39;;;;;;;21.65;17.55;;;8.90;99.90;;;;;;5009694;27;89547;-40
2021/12/16 16:43:34;;;;;;;28.83;20.48;;;8.80;99.90;;;;;;5009836;27;88898;-34
2021/12/16 16:46:29;;;;;;;27.55;18.88;;;8.80;99.90;;;;;;5009355;27;90801;-33
2021/12/16 16:51:43;;;;;;;25.02;17.77;;;8.80;99.90;;;;;;5009163;27;89471;-35